Time;durP1;ratioP1;P1;durP2;ratioP2;P2;SDS_P1;SDS_P2;PMS_P1;PMS_P2;Temp;Humidity;BMP_temperature;BMP_pressure;BME280_temperature;BME280_humidity;BME280_pressure;Samples;Min_cycle;Max_cycle;Signal;HPM_P1;HPM_P2
2024/02/13 00:02:20;;;;;;;11.07;7.13;;;4.00;99.90;;;;;;5133817;27;20428;-70
2024/02/13 00:04:46;;;;;;;8.40;6.13;;;4.00;99.90;;;;;;5154158;27;20507;-71
2024/02/13 00:07:13;;;;;;;11.27;6.37;;;4.00;99.90;;;;;;5153159;27;20260;-71
2024/02/13 00:09:43;;;;;;;7.73;5.10;;;3.90;99.90;;;;;;5142358;27;20409;-73
2024/02/13 00:12:08;;;;;;;11.20;6.90;;;3.90;99.90;;;;;;5147264;27;20510;-72
2024/02/13 00:14:34;;;;;;;8.90;6.50;;;3.80;99.90;;;;;;5143094;27;20424;-72
2024/02/13 00:17:00;;;;;;;14.60;7.10;;;3.80;99.90;;;;;;5141645;27;20217;-69
2024/02/13 00:19:28;;;;;;;8.27;6.30;;;3.80;99.90;;;;;;5144301;27;20213;-73
2024/02/13 00:21:55;;;;;;;10.30;6.43;;;3.80;99.90;;;;;;5154185;27;20206;-70
2024/02/13 00:24:21;;;;;;;7.10;5.50;;;3.80;99.90;;;;;;5142347;27;20424;-69
2024/02/13 00:26:47;;;;;;;9.03;7.17;;;3.80;99.90;;;;;;5145893;27;20468;-68
2024/02/13 00:29:12;;;;;;;11.60;7.43;;;3.70;99.90;;;;;;5155679;27;20210;-70
2024/02/13 00:31:40;;;;;;;12.90;8.00;;;3.70;99.90;;;;;;5131105;27;20180;-70
2024/02/13 00:34:06;;;;;;;8.37;7.00;;;3.70;99.90;;;;;;5099793;28;20729;-70
2024/02/13 00:36:33;;;;;;;9.93;6.40;;;3.70;99.90;;;;;;5125856;27;20475;-72
2024/02/13 00:39:00;;;;;;;8.80;6.60;;;3.60;99.90;;;;;;5130281;27;20168;-72
2024/02/13 00:41:26;;;;;;;11.50;6.33;;;3.60;99.90;;;;;;5131491;27;20453;-69
2024/02/13 00:43:52;;;;;;;12.90;7.90;;;3.60;99.90;;;;;;5136318;27;20901;-70
2024/02/13 00:46:19;;;;;;;13.13;8.47;;;3.50;99.90;;;;;;5135867;27;20463;-72
2024/02/13 00:48:45;;;;;;;14.83;9.60;;;3.50;99.90;;;;;;5138089;27;20439;-68
2024/02/13 00:51:11;;;;;;;11.10;7.40;;;3.60;99.90;;;;;;5139943;27;20408;-70
2024/02/13 00:53:37;;;;;;;10.93;8.07;;;3.50;99.90;;;;;;5154368;27;20375;-68
2024/02/13 00:56:06;;;;;;;8.57;7.00;;;3.50;99.90;;;;;;5154484;27;20285;-70
2024/02/13 00:58:35;;;;;;;9.53;7.67;;;3.50;99.90;;;;;;5156498;27;20404;-69
2024/02/13 01:01:03;;;;;;;8.67;6.47;;;3.50;99.90;;;;;;5137454;27;20420;-69
2024/02/13 01:03:29;;;;;;;10.17;7.50;;;3.50;99.90;;;;;;5130280;27;20723;-69
2024/02/13 01:05:55;;;;;;;9.57;7.10;;;3.40;99.90;;;;;;5141047;27;20456;-69
2024/02/13 01:08:23;;;;;;;11.03;7.50;;;3.40;99.90;;;;;;5157823;27;20423;-69
2024/02/13 01:10:52;;;;;;;9.60;6.57;;;3.30;99.90;;;;;;5159879;27;20408;-68
2024/02/13 01:13:18;;;;;;;9.50;6.33;;;3.30;99.90;;;;;;5152220;27;20401;-69
2024/02/13 01:15:44;;;;;;;12.33;7.20;;;3.30;99.90;;;;;;5127835;27;20894;-68
2024/02/13 01:18:10;;;;;;;13.30;7.80;;;3.30;99.90;;;;;;5133055;27;20405;-70
2024/02/13 01:20:36;;;;;;;11.70;7.43;;;3.30;99.90;;;;;;5135452;27;20444;-70
2024/02/13 01:23:03;;;;;;;11.80;7.57;;;3.30;99.90;;;;;;5138071;27;20191;-68
2024/02/13 01:25:30;;;;;;;10.43;7.13;;;3.30;99.90;;;;;;5151382;27;20789;-70
2024/02/13 01:27:57;;;;;;;16.53;7.97;;;3.30;99.90;;;;;;5132658;27;20423;-69
2024/02/13 01:30:23;;;;;;;11.33;7.43;;;3.30;99.90;;;;;;5137791;27;20839;-70
2024/02/13 01:32:49;;;;;;;11.27;6.50;;;3.40;99.90;;;;;;5135161;27;20409;-70
2024/02/13 01:35:16;;;;;;;12.50;6.73;;;3.30;99.90;;;;;;5138046;27;20428;-71
2024/02/13 01:37:43;;;;;;;9.20;6.83;;;3.30;99.90;;;;;;5146266;27;20415;-67
2024/02/13 01:40:10;;;;;;;9.87;6.07;;;3.20;99.90;;;;;;5139097;27;20453;-70
2024/02/13 01:42:37;;;;;;;10.27;6.20;;;3.20;99.90;;;;;;5118675;27;20464;-69
2024/02/13 01:45:13;;;;;;;10.43;7.27;;;3.20;99.90;;;;;;5135168;27;20459;-69
2024/02/13 01:47:42;;;;;;;12.80;7.90;;;3.10;99.90;;;;;;5123075;27;20428;-70
2024/02/13 01:50:09;;;;;;;9.87;6.80;;;3.20;99.90;;;;;;5131439;27;20460;-69
2024/02/13 01:52:36;;;;;;;10.10;6.07;;;3.20;99.90;;;;;;5125595;28;20426;-68
2024/02/13 01:55:03;;;;;;;9.07;6.60;;;3.20;99.90;;;;;;5130838;27;20417;-68
2024/02/13 01:57:36;;;;;;;8.00;5.70;;;3.10;99.90;;;;;;5124454;28;20489;-68
2024/02/13 02:00:03;;;;;;;6.37;5.33;;;3.10;99.90;;;;;;5123308;28;20401;-69
2024/02/13 02:02:38;;;;;;;9.30;6.43;;;3.10;99.90;;;;;;5117074;28;20409;-69
2024/02/13 02:05:06;;;;;;;10.67;6.30;;;3.10;99.90;;;;;;5129615;27;20473;-68
2024/02/13 02:07:33;;;;;;;9.40;5.70;;;3.10;99.90;;;;;;5131899;27;20421;-68
2024/02/13 02:09:58;;;;;;;8.13;4.90;;;3.00;99.90;;;;;;5127695;27;20444;-68
2024/02/13 02:12:24;;;;;;;8.20;6.03;;;3.00;99.90;;;;;;5126554;28;20421;-69
2024/02/13 02:14:49;;;;;;;11.20;6.00;;;3.00;99.90;;;;;;5147066;27;20205;-68
2024/02/13 02:17:15;;;;;;;11.20;5.73;;;3.00;99.90;;;;;;5128255;27;20239;-69
2024/02/13 02:19:41;;;;;;;11.87;6.10;;;3.00;99.90;;;;;;5114921;28;20187;-69
2024/02/13 02:22:07;;;;;;;10.83;6.17;;;3.00;99.90;;;;;;5125019;27;20184;-69
2024/02/13 02:24:35;;;;;;;9.63;6.13;;;3.10;99.90;;;;;;5120626;28;20452;-69
2024/02/13 02:27:04;;;;;;;8.03;5.40;;;3.10;99.90;;;;;;5106971;28;20449;-68
2024/02/13 02:29:31;;;;;;;9.60;6.37;;;3.10;99.90;;;;;;5120712;28;20417;-68
2024/02/13 02:31:57;;;;;;;7.80;5.60;;;3.10;99.90;;;;;;5129308;28;20420;-69
2024/02/13 02:34:23;;;;;;;10.83;6.30;;;3.10;99.90;;;;;;5120333;28;20417;-69
2024/02/13 02:36:50;;;;;;;6.63;4.70;;;3.10;99.90;;;;;;5128597;28;20211;-68
2024/02/13 02:39:19;;;;;;;9.70;5.87;;;3.10;99.90;;;;;;5136247;28;20515;-68
2024/02/13 02:41:46;;;;;;;7.30;5.40;;;3.10;99.90;;;;;;5122786;28;20532;-67
2024/02/13 02:44:12;;;;;;;9.50;5.90;;;3.10;99.90;;;;;;5139324;27;20729;-68
2024/02/13 02:46:38;;;;;;;12.53;6.20;;;3.10;99.90;;;;;;5137676;27;20539;-67
2024/02/13 02:49:05;;;;;;;9.40;6.00;;;3.10;99.90;;;;;;5141016;27;20415;-69
2024/02/13 02:51:31;;;;;;;10.37;5.60;;;3.20;99.90;;;;;;5143011;27;20418;-68
2024/02/13 02:53:57;;;;;;;7.40;5.47;;;3.40;99.90;;;;;;5139510;27;20416;-68
2024/02/13 02:56:23;;;;;;;10.83;6.47;;;3.50;99.90;;;;;;5152908;27;20427;-68
2024/02/13 02:58:53;;;;;;;17.87;8.63;;;3.60;99.90;;;;;;5130499;27;20435;-69
2024/02/13 03:01:19;;;;;;;14.53;8.80;;;3.70;99.90;;;;;;5129960;27;20527;-70
2024/02/13 03:03:44;;;;;;;12.70;8.73;;;3.70;99.90;;;;;;5117983;27;20448;-68
2024/02/13 03:06:10;;;;;;;12.70;7.63;;;3.70;99.90;;;;;;5148441;27;20214;-68
2024/02/13 03:08:35;;;;;;;13.10;7.90;;;3.70;99.90;;;;;;5155758;27;20184;-68
2024/02/13 03:11:01;;;;;;;14.50;7.60;;;3.70;99.90;;;;;;5161100;27;20739;-68
2024/02/13 03:13:27;;;;;;;9.47;7.17;;;3.70;99.90;;;;;;5163357;27;20170;-68
2024/02/13 03:15:53;;;;;;;11.53;8.30;;;3.70;99.90;;;;;;5144168;27;20629;-68
2024/02/13 03:18:19;;;;;;;11.97;8.53;;;3.70;99.90;;;;;;5117396;27;20460;-68
2024/02/13 03:20:45;;;;;;;11.37;6.93;;;3.70;99.90;;;;;;5135352;27;20198;-68
2024/02/13 03:23:11;;;;;;;12.83;8.33;;;3.70;99.90;;;;;;5147265;27;20493;-67
2024/02/13 03:25:36;;;;;;;11.47;7.70;;;3.60;99.90;;;;;;5149651;27;20299;-68
2024/02/13 03:28:05;;;;;;;8.67;7.17;;;3.60;99.90;;;;;;5151432;27;20213;-69
2024/02/13 03:30:31;;;;;;;13.23;7.80;;;3.60;99.90;;;;;;5134838;27;20174;-68
2024/02/13 03:32:56;;;;;;;15.77;7.60;;;3.60;99.90;;;;;;5137501;27;20444;-68
2024/02/13 03:35:22;;;;;;;10.80;6.60;;;3.70;99.90;;;;;;5148805;27;20745;-67
2024/02/13 03:37:47;;;;;;;9.10;6.67;;;3.70;99.90;;;;;;5133335;27;20198;-68
2024/02/13 03:40:16;;;;;;;9.30;6.23;;;3.70;99.90;;;;;;5156064;27;20501;-68
2024/02/13 03:42:45;;;;;;;9.50;7.37;;;3.80;99.90;;;;;;5136141;27;20230;-68
2024/02/13 03:45:10;;;;;;;11.10;6.60;;;3.80;99.90;;;;;;5138484;27;20898;-69
2024/02/13 03:47:37;;;;;;;10.23;6.90;;;3.90;99.90;;;;;;5139204;27;20409;-68
2024/02/13 03:50:03;;;;;;;7.60;6.53;;;3.90;99.90;;;;;;5136766;27;20195;-67
2024/02/13 03:52:29;;;;;;;10.47;7.53;;;4.00;99.90;;;;;;5137329;27;20423;-67
2024/02/13 03:54:54;;;;;;;13.23;8.80;;;4.00;99.90;;;;;;5136461;27;20421;-68
2024/02/13 03:57:20;;;;;;;10.70;8.13;;;4.00;99.90;;;;;;5137422;27;20692;-68
2024/02/13 03:59:46;;;;;;;13.03;7.97;;;4.00;99.90;;;;;;5137705;27;20221;-69
2024/02/13 04:02:11;;;;;;;13.70;7.70;;;3.90;99.90;;;;;;5137288;27;20179;-68
2024/02/13 04:04:37;;;;;;;12.50;9.50;;;3.90;99.90;;;;;;5136494;27;20267;-68
2024/02/13 04:07:04;;;;;;;13.90;9.00;;;3.90;99.90;;;;;;5136627;27;20218;-67
2024/02/13 04:09:31;;;;;;;13.23;9.07;;;4.00;99.90;;;;;;5137354;27;20236;-69
2024/02/13 04:11:56;;;;;;;11.80;8.67;;;3.90;99.90;;;;;;5137154;27;20920;-68
2024/02/13 04:14:23;;;;;;;13.23;7.90;;;3.90;99.90;;;;;;5137434;27;20509;-67
2024/02/13 04:16:49;;;;;;;12.77;8.37;;;3.90;99.90;;;;;;5138131;27;20310;-68
2024/02/13 04:19:15;;;;;;;10.27;7.50;;;3.80;99.90;;;;;;5139081;27;20432;-67
2024/02/13 04:21:41;;;;;;;9.97;6.87;;;3.70;99.90;;;;;;5137775;27;20711;-68
2024/02/13 04:24:07;;;;;;;13.23;7.20;;;3.70;99.90;;;;;;5136461;27;20260;-67
2024/02/13 04:26:33;;;;;;;9.83;6.90;;;3.60;99.90;;;;;;5137236;27;20214;-68
2024/02/13 04:28:59;;;;;;;9.63;7.23;;;3.60;99.90;;;;;;5136440;27;20199;-68
2024/02/13 04:31:25;;;;;;;12.57;8.57;;;3.60;99.90;;;;;;5136905;27;20412;-69
2024/02/13 04:33:52;;;;;;;11.93;9.33;;;3.60;99.90;;;;;;5135857;27;20412;-69
2024/02/13 04:36:17;;;;;;;13.00;8.00;;;3.60;99.90;;;;;;5136566;27;20261;-68
2024/02/13 04:38:43;;;;;;;15.43;9.00;;;3.50;99.90;;;;;;5136908;27;20749;-67
2024/02/13 04:41:09;;;;;;;12.20;7.20;;;3.50;99.90;;;;;;5134791;27;20405;-66
2024/02/13 04:43:35;;;;;;;14.47;8.67;;;3.60;99.90;;;;;;5115946;28;20414;-67
2024/02/13 04:46:02;;;;;;;10.10;8.00;;;3.50;99.90;;;;;;5116039;28;20226;-67
2024/02/13 04:48:30;;;;;;;10.70;7.40;;;3.50;99.90;;;;;;5115493;28;20273;-68
2024/02/13 04:50:56;;;;;;;9.47;6.53;;;3.50;99.90;;;;;;5115998;28;20464;-67
2024/02/13 04:53:22;;;;;;;8.27;5.80;;;3.50;99.90;;;;;;5115393;28;20449;-68
2024/02/13 04:55:48;;;;;;;9.67;6.70;;;3.50;99.90;;;;;;5116155;28;20501;-68
2024/02/13 04:58:20;;;;;;;10.93;6.77;;;3.40;99.90;;;;;;5115463;28;20176;-66
2024/02/13 05:00:51;;;;;;;8.50;6.50;;;3.30;99.90;;;;;;5117186;28;20723;-68
2024/02/13 05:03:38;;;;;;;8.10;5.27;;;3.30;99.90;;;;;;5122932;28;20467;-69
2024/02/13 05:08:55;;;;;;;9.73;5.13;;;3.30;99.90;;;;;;5123313;28;20474;-69
2024/02/13 05:11:23;;;;;;;7.97;5.47;;;3.30;99.90;;;;;;5123142;28;20406;-67
2024/02/13 05:13:49;;;;;;;8.03;5.13;;;3.30;99.90;;;;;;5121534;28;20416;-68
2024/02/13 05:16:16;;;;;;;7.03;4.77;;;3.30;99.90;;;;;;5122516;28;20425;-68
2024/02/13 05:18:42;;;;;;;8.63;4.80;;;3.40;99.90;;;;;;5122798;27;20451;-68
2024/02/13 05:21:09;;;;;;;8.23;5.23;;;3.40;99.90;;;;;;5118422;28;20496;-68
2024/02/13 05:23:35;;;;;;;4.30;3.90;;;3.40;99.90;;;;;;5122353;28;20194;-68
2024/02/13 05:26:01;;;;;;;5.20;3.90;;;3.40;99.90;;;;;;5121200;28;20582;-69
2024/02/13 05:28:27;;;;;;;3.93;3.17;;;3.40;99.90;;;;;;5097194;28;20540;-69
2024/02/13 05:30:53;;;;;;;6.20;3.50;;;3.40;99.90;;;;;;5107049;28;20429;-69
2024/02/13 05:33:19;;;;;;;4.93;3.10;;;3.40;99.90;;;;;;5118245;27;20218;-71
2024/02/13 05:35:46;;;;;;;5.60;3.37;;;3.40;99.90;;;;;;5079128;28;20398;-69
2024/02/13 05:38:12;;;;;;;3.20;2.80;;;3.40;99.90;;;;;;5117227;28;20884;-69
2024/02/13 05:40:38;;;;;;;4.10;2.67;;;3.40;99.90;;;;;;5117531;28;20410;-68
2024/02/13 05:43:07;;;;;;;3.30;2.67;;;3.40;99.90;;;;;;5136382;27;20455;-68
2024/02/13 05:45:33;;;;;;;4.17;2.40;;;3.40;99.90;;;;;;5153420;27;20529;-71
2024/02/13 05:47:58;;;;;;;4.70;2.83;;;3.40;99.90;;;;;;5135069;27;20433;-71
2024/02/13 05:50:26;;;;;;;5.10;2.90;;;3.30;99.90;;;;;;5137595;27;20456;-70
2024/02/13 05:52:52;;;;;;;3.97;2.33;;;3.30;99.90;;;;;;5132882;27;20469;-71
2024/02/13 05:55:18;;;;;;;3.73;2.17;;;3.30;99.90;;;;;;5130401;27;20451;-71
2024/02/13 05:57:44;;;;;;;5.27;2.80;;;3.30;99.90;;;;;;5132011;27;20901;-70
2024/02/13 06:00:14;;;;;;;9.20;4.83;;;3.20;99.90;;;;;;5128751;27;20462;-68
2024/02/13 06:02:43;;;;;;;4.77;3.50;;;3.20;99.90;;;;;;5132136;27;20206;-69
2024/02/13 06:05:14;;;;;;;6.67;3.57;;;3.10;99.90;;;;;;5143778;27;20523;-68
2024/02/13 06:07:41;;;;;;;11.10;3.83;;;3.10;99.90;;;;;;5148130;27;20417;-70
2024/02/13 06:10:06;;;;;;;4.60;2.70;;;3.10;99.90;;;;;;5143684;27;20408;-70
2024/02/13 06:12:32;;;;;;;3.93;2.80;;;3.10;99.90;;;;;;5140501;27;20446;-71
2024/02/13 06:14:58;;;;;;;6.10;3.10;;;3.10;99.90;;;;;;5146495;27;20522;-70
2024/02/13 06:17:24;;;;;;;4.37;2.60;;;3.10;99.90;;;;;;5145870;27;20222;-68
2024/02/13 06:19:50;;;;;;;4.67;3.23;;;3.00;99.90;;;;;;5125047;27;20202;-68
2024/02/13 06:22:17;;;;;;;5.27;3.00;;;3.00;99.90;;;;;;5143587;27;20424;-72
2024/02/13 06:24:43;;;;;;;6.13;3.30;;;3.00;99.90;;;;;;5151020;27;20702;-70
2024/02/13 06:27:09;;;;;;;6.80;3.63;;;3.00;99.90;;;;;;5142755;27;20443;-70
2024/02/13 06:29:34;;;;;;;7.70;3.40;;;3.10;99.90;;;;;;5153578;27;20187;-68
2024/02/13 06:32:00;;;;;;;8.10;2.83;;;3.10;99.90;;;;;;5149771;27;20604;-68
2024/02/13 06:34:26;;;;;;;7.40;3.50;;;3.20;99.90;;;;;;5143283;27;20198;-71
2024/02/13 06:36:51;;;;;;;3.53;2.47;;;3.20;99.90;;;;;;5140795;27;20201;-68
2024/02/13 06:39:23;;;;;;;10.30;3.30;;;3.20;99.90;;;;;;5153367;27;20187;-69
2024/02/13 06:41:49;;;;;;;4.57;2.53;;;3.20;99.90;;;;;;5147202;27;20455;-70
2024/02/13 06:44:15;;;;;;;6.13;3.57;;;3.20;99.90;;;;;;5151141;27;20480;-68
2024/02/13 06:46:40;;;;;;;6.93;3.20;;;3.20;99.90;;;;;;5168341;27;20461;-69
2024/02/13 06:49:07;;;;;;;4.97;3.00;;;3.20;99.90;;;;;;5145782;27;20788;-72
2024/02/13 06:51:33;;;;;;;3.33;2.63;;;3.20;99.90;;;;;;5136077;27;20187;-70
2024/02/13 06:54:01;;;;;;;3.03;2.10;;;3.20;99.90;;;;;;5131678;27;20441;-68
2024/02/13 06:56:27;;;;;;;6.30;2.90;;;3.20;99.90;;;;;;5138863;27;20241;-69
2024/02/13 06:58:54;;;;;;;2.60;2.40;;;3.20;99.90;;;;;;5157066;27;20853;-71
2024/02/13 07:01:23;;;;;;;5.30;2.30;;;3.20;99.90;;;;;;5158960;27;20416;-68
2024/02/13 07:03:49;;;;;;;4.20;1.93;;;3.20;99.90;;;;;;5148099;27;20412;-69
2024/02/13 07:06:18;;;;;;;2.70;1.93;;;3.20;99.90;;;;;;5144341;27;20460;-70
2024/02/13 07:08:44;;;;;;;3.60;2.40;;;3.20;99.90;;;;;;5142499;27;20585;-71
2024/02/13 07:11:10;;;;;;;7.17;2.50;;;3.20;99.90;;;;;;5150903;27;20420;-69
2024/02/13 07:13:36;;;;;;;3.87;2.50;;;3.30;99.90;;;;;;5146435;27;20412;-69
2024/02/13 07:16:06;;;;;;;3.40;2.27;;;3.30;99.90;;;;;;5151607;27;20522;-70
2024/02/13 07:18:35;;;;;;;2.83;2.10;;;3.40;99.90;;;;;;5143675;27;20435;-69
2024/02/13 07:21:01;;;;;;;3.57;2.63;;;3.50;99.90;;;;;;5125829;27;20515;-71
2024/02/13 07:23:27;;;;;;;2.63;1.90;;;3.60;99.90;;;;;;5144180;27;20447;-71
2024/02/13 07:25:52;;;;;;;4.73;2.23;;;3.60;99.90;;;;;;5145677;27;20218;-71
2024/02/13 07:28:18;;;;;;;3.93;2.80;;;3.60;99.90;;;;;;5150440;27;20472;-70
2024/02/13 07:30:43;;;;;;;3.17;2.23;;;3.70;99.90;;;;;;5154681;27;20174;-71
2024/02/13 07:33:09;;;;;;;3.70;1.90;;;3.80;99.90;;;;;;5133961;27;20205;-71
2024/02/13 07:35:35;;;;;;;3.40;2.00;;;3.80;99.90;;;;;;5143534;27;20418;-69
2024/02/13 07:38:04;;;;;;;6.50;2.90;;;3.90;99.90;;;;;;5125095;27;20871;-70
2024/02/13 07:40:30;;;;;;;7.37;2.43;;;3.90;99.90;;;;;;5139809;27;20416;-72
2024/02/13 07:42:56;;;;;;;5.37;1.80;;;4.00;99.90;;;;;;5150224;27;20932;-70
2024/02/13 07:45:22;;;;;;;2.90;2.10;;;4.00;99.90;;;;;;5134296;27;20744;-73
2024/02/13 07:47:49;;;;;;;6.00;2.20;;;4.10;99.90;;;;;;5140688;27;20592;-71
2024/02/13 07:50:14;;;;;;;2.47;1.70;;;4.20;99.90;;;;;;5141873;27;20894;-72
2024/02/13 07:52:40;;;;;;;4.40;1.70;;;4.30;99.90;;;;;;5121312;27;20449;-71
2024/02/13 07:55:06;;;;;;;2.67;1.57;;;4.40;99.90;;;;;;5142203;27;20255;-70
2024/02/13 07:57:34;;;;;;;2.23;1.70;;;4.50;99.90;;;;;;5142339;27;20195;-70
2024/02/13 07:59:59;;;;;;;3.50;1.67;;;4.50;99.90;;;;;;5134921;27;20183;-72
2024/02/13 08:02:25;;;;;;;2.27;1.97;;;4.60;99.90;;;;;;5142638;27;20407;-71
2024/02/13 08:04:53;;;;;;;2.77;1.70;;;4.60;99.90;;;;;;5134496;27;20195;-72
2024/02/13 08:07:19;;;;;;;4.07;2.00;;;4.60;99.90;;;;;;5147184;27;20202;-70
2024/02/13 08:09:45;;;;;;;3.80;2.10;;;4.70;99.90;;;;;;5150108;27;20434;-73
2024/02/13 08:12:12;;;;;;;3.73;2.30;;;4.70;99.90;;;;;;5133823;27;20486;-73
2024/02/13 08:14:38;;;;;;;2.80;1.70;;;4.80;99.90;;;;;;5126305;27;20703;-72
2024/02/13 08:17:06;;;;;;;3.53;1.60;;;4.80;99.90;;;;;;5116983;27;20440;-71
2024/02/13 08:19:33;;;;;;;5.33;1.93;;;4.90;99.90;;;;;;5138379;27;20452;-70
2024/02/13 08:22:00;;;;;;;3.33;1.80;;;5.00;99.90;;;;;;5139730;27;20428;-70
2024/02/13 08:24:26;;;;;;;3.17;2.10;;;5.10;99.90;;;;;;5137489;27;20520;-70
2024/02/13 08:26:52;;;;;;;7.57;2.40;;;5.20;99.90;;;;;;5129688;27;20459;-71
2024/02/13 08:29:19;;;;;;;7.07;2.53;;;5.30;99.90;;;;;;5140739;27;20444;-72
2024/02/13 08:31:45;;;;;;;3.23;2.00;;;5.50;99.90;;;;;;5144094;27;20465;-72
2024/02/13 08:34:11;;;;;;;4.63;2.67;;;5.60;99.90;;;;;;5144306;27;20434;-72
2024/02/13 08:36:38;;;;;;;5.00;3.20;;;5.60;99.90;;;;;;5133642;27;20247;-70
2024/02/13 08:39:04;;;;;;;5.25;2.63;;;5.70;99.90;;;;;;5134166;27;20444;-69
2024/02/13 08:41:31;;;;;;;3.33;2.57;;;5.60;99.90;;;;;;5152213;27;20218;-74
2024/02/13 08:44:00;;;;;;;4.03;2.30;;;5.70;99.90;;;;;;5132193;27;20226;-73
2024/02/13 08:46:26;;;;;;;13.30;3.37;;;5.70;99.90;;;;;;5116058;27;20472;-70
2024/02/13 08:48:51;;;;;;;6.93;2.90;;;5.70;99.90;;;;;;5123328;27;20440;-71
2024/02/13 08:51:19;;;;;;;4.83;2.50;;;5.80;99.90;;;;;;5137847;27;20190;-71
2024/02/13 08:53:46;;;;;;;9.60;4.10;;;5.80;99.90;;;;;;5141460;27;20179;-70
2024/02/13 08:56:13;;;;;;;3.13;2.43;;;5.90;99.90;;;;;;5142885;27;20437;-73
2024/02/13 08:58:39;;;;;;;7.40;2.43;;;6.00;99.90;;;;;;5138903;27;20711;-70
2024/02/13 09:01:05;;;;;;;6.70;3.30;;;6.00;99.90;;;;;;5142282;27;20413;-70
2024/02/13 09:03:31;;;;;;;6.03;3.60;;;6.10;99.90;;;;;;5118434;27;20476;-70
2024/02/13 09:05:58;;;;;;;5.43;2.20;;;6.20;99.90;;;;;;5144296;27;20668;-72
2024/02/13 09:08:24;;;;;;;2.07;1.90;;;6.30;99.90;;;;;;5126894;27;21013;-72
2024/02/13 09:10:50;;;;;;;5.47;2.10;;;6.40;99.90;;;;;;5146718;27;20440;-72
2024/02/13 09:13:16;;;;;;;5.67;2.40;;;6.40;99.90;;;;;;5148410;27;20193;-72
2024/02/13 09:15:42;;;;;;;3.10;2.00;;;6.50;99.90;;;;;;5143757;27;20460;-71
2024/02/13 09:18:08;;;;;;;3.60;1.90;;;6.60;99.90;;;;;;5145979;27;20463;-72
2024/02/13 09:20:35;;;;;;;4.37;1.93;;;6.60;99.90;;;;;;5134541;27;20485;-70
2024/02/13 09:23:01;;;;;;;3.67;1.77;;;6.70;99.90;;;;;;5135193;27;20210;-73
2024/02/13 09:25:27;;;;;;;5.50;2.40;;;6.70;99.90;;;;;;5112861;28;20548;-70
2024/02/13 09:27:54;;;;;;;2.87;1.83;;;6.80;99.90;;;;;;5147751;27;20519;-72
2024/02/13 09:30:21;;;;;;;2.97;1.97;;;6.90;99.90;;;;;;5132966;27;20443;-73
2024/02/13 09:32:47;;;;;;;4.50;2.43;;;6.90;99.90;;;;;;5125365;27;20478;-69
2024/02/13 09:35:13;;;;;;;7.20;2.00;;;7.00;99.90;;;;;;5109932;27;20553;-72
2024/02/13 09:37:40;;;;;;;5.10;2.07;;;7.00;99.90;;;;;;5124033;27;20433;-73
2024/02/13 09:40:13;;;;;;;6.00;2.33;;;7.10;99.90;;;;;;5101295;28;20184;-70
2024/02/13 09:42:40;;;;;;;5.37;1.70;;;7.10;99.90;;;;;;5145676;27;20460;-74
2024/02/13 09:45:07;;;;;;;4.13;1.90;;;7.20;99.90;;;;;;5116836;27;20492;-73
2024/02/13 09:47:33;;;;;;;3.97;1.90;;;7.20;99.90;;;;;;5142223;27;20451;-72
2024/02/13 09:50:01;;;;;;;6.80;2.20;;;7.30;99.90;;;;;;5142384;27;20669;-74
2024/02/13 09:52:29;;;;;;;2.90;1.90;;;7.40;99.90;;;;;;5114502;28;20405;-72
2024/02/13 09:54:58;;;;;;;2.20;1.67;;;7.40;99.90;;;;;;5138391;27;20400;-74
2024/02/13 09:57:24;;;;;;;3.80;2.53;;;7.50;99.90;;;;;;5144054;27;20801;-69
2024/02/13 09:59:50;;;;;;;4.03;2.20;;;7.50;99.90;;;;;;5145321;27;20416;-71
2024/02/13 10:02:18;;;;;;;3.87;1.97;;;7.60;99.90;;;;;;5140481;27;20707;-71
2024/02/13 10:04:44;;;;;;;6.23;2.10;;;7.70;99.90;;;;;;5146352;27;20424;-72
2024/02/13 10:07:10;;;;;;;7.53;2.27;;;7.70;99.90;;;;;;5151898;27;20457;-73
2024/02/13 10:09:36;;;;;;;4.30;2.10;;;7.70;99.90;;;;;;5112189;27;20590;-74
2024/02/13 10:12:12;;;;;;;5.60;2.43;;;7.80;99.90;;;;;;5132698;27;20508;-75
2024/02/13 10:14:38;;;;;;;3.17;2.27;;;7.80;99.90;;;;;;5127863;27;20412;-72
2024/02/13 10:17:11;;;;;;;2.77;1.80;;;7.90;99.90;;;;;;5130954;27;20469;-72
2024/02/13 10:19:40;;;;;;;7.00;2.00;;;8.00;99.90;;;;;;5117995;27;20437;-72
2024/02/13 10:22:07;;;;;;;5.23;2.07;;;8.10;99.90;;;;;;5127803;27;20420;-73
2024/02/13 10:24:33;;;;;;;5.20;1.90;;;8.10;99.90;;;;;;5127668;27;20437;-71
2024/02/13 10:27:03;;;;;;;4.77;1.67;;;8.10;99.90;;;;;;5122519;28;20468;-72
2024/02/13 10:29:39;;;;;;;4.90;1.60;;;8.20;99.90;;;;;;5129230;27;20186;-71
2024/02/13 10:32:07;;;;;;;3.30;1.50;;;8.30;99.90;;;;;;5140220;27;20421;-73
2024/02/13 10:34:36;;;;;;;4.27;1.67;;;8.30;99.90;;;;;;5123292;27;20695;-73
2024/02/13 10:37:07;;;;;;;2.60;1.63;;;8.40;99.90;;;;;;5163765;27;20431;-71
2024/02/13 10:39:35;;;;;;;5.30;1.60;;;8.50;99.90;;;;;;5127240;28;20393;-74
2024/02/13 10:42:07;;;;;;;2.60;1.50;;;8.50;99.90;;;;;;5126248;28;20464;-70
2024/02/13 10:44:41;;;;;;;3.97;1.80;;;8.60;99.90;;;;;;5123603;27;20427;-72
2024/02/13 10:47:10;;;;;;;4.70;1.50;;;8.60;99.90;;;;;;5153526;27;20481;-72
2024/02/13 10:49:42;;;;;;;6.53;1.40;;;8.70;99.90;;;;;;5132765;27;20559;-72
2024/02/13 10:52:08;;;;;;;3.20;1.57;;;8.70;99.10;;;;;;5147835;27;20452;-70
2024/02/13 10:54:37;;;;;;;8.30;1.40;;;8.80;99.90;;;;;;5146376;27;20421;-72
2024/02/13 10:57:06;;;;;;;4.63;2.60;;;8.80;98.90;;;;;;5140033;27;20544;-74
2024/02/13 10:59:35;;;;;;;4.60;1.53;;;9.00;98.00;;;;;;5126899;28;20449;-70
2024/02/13 11:02:01;;;;;;;2.80;1.50;;;9.00;97.40;;;;;;5113690;28;20445;-73
2024/02/13 11:04:27;;;;;;;3.87;1.50;;;9.00;95.90;;;;;;5124085;28;20548;-70
2024/02/13 11:06:54;;;;;;;5.03;1.87;;;8.90;95.80;;;;;;5137152;27;20452;-75
2024/02/13 11:09:20;;;;;;;5.30;1.43;;;8.90;96.00;;;;;;5124999;28;20190;-72
2024/02/13 11:11:46;;;;;;;4.10;1.60;;;8.90;95.90;;;;;;5141393;27;20416;-75
2024/02/13 11:14:22;;;;;;;4.33;1.60;;;9.00;94.60;;;;;;5100929;28;20193;-73
2024/02/13 11:16:56;;;;;;;3.03;1.60;;;9.00;94.70;;;;;;5132196;27;20207;-74
2024/02/13 11:19:22;;;;;;;3.33;1.43;;;9.10;93.80;;;;;;5135982;28;20436;-73
2024/02/13 11:21:51;;;;;;;2.77;1.20;;;9.10;93.70;;;;;;5126452;27;20437;-72
2024/02/13 11:24:23;;;;;;;7.40;1.77;;;9.10;93.80;;;;;;5130578;27;20511;-73
2024/02/13 11:26:49;;;;;;;2.10;1.30;;;9.30;93.60;;;;;;5111837;27;20479;-73
2024/02/13 11:29:20;;;;;;;6.57;2.43;;;9.30;93.20;;;;;;5115210;27;20432;-74
2024/02/13 11:31:57;;;;;;;3.90;1.50;;;9.50;92.70;;;;;;5128583;27;20202;-75
2024/02/13 11:34:39;;;;;;;3.43;1.53;;;9.60;92.10;;;;;;5142719;27;20435;-74
2024/02/13 11:37:20;;;;;;;4.83;1.37;;;9.70;91.20;;;;;;5144000;27;21452;-72
2024/02/13 11:39:50;;;;;;;3.40;1.33;;;9.70;90.90;;;;;;5133073;27;20448;-75
2024/02/13 11:42:19;;;;;;;1.73;1.37;;;9.80;91.10;;;;;;5130668;27;20463;-72
2024/02/13 11:44:48;;;;;;;5.10;1.60;;;10.00;90.40;;;;;;5147232;27;20523;-71
2024/02/13 11:47:24;;;;;;;1.90;1.40;;;10.20;89.80;;;;;;5151006;27;20919;-74
2024/02/13 11:49:50;;;;;;;3.97;1.77;;;10.30;88.60;;;;;;5104025;27;20444;-74
2024/02/13 11:52:17;;;;;;;6.73;1.73;;;10.30;85.50;;;;;;5143133;27;20432;-74
2024/02/13 11:54:46;;;;;;;7.77;2.10;;;10.30;85.60;;;;;;5145839;27;20440;-72
2024/02/13 11:57:17;;;;;;;5.63;1.40;;;10.20;84.80;;;;;;5141995;27;20554;-71
2024/02/13 11:59:44;;;;;;;3.45;1.25;;;10.20;85.60;;;;;;5138690;27;20444;-71
2024/02/13 12:02:14;;;;;;;2.30;1.33;;;10.20;87.20;;;;;;5146038;27;20220;-73
2024/02/13 12:04:44;;;;;;;3.30;1.40;;;10.20;85.20;;;;;;5132636;27;20444;-76
2024/02/13 12:07:11;;;;;;;2.70;1.50;;;10.20;84.40;;;;;;5138318;27;20481;-75
2024/02/13 12:09:38;;;;;;;2.73;1.50;;;10.20;84.10;;;;;;5138701;27;20441;-73
2024/02/13 12:12:08;;;;;;;4.17;1.70;;;10.30;85.20;;;;;;5144867;27;20406;-75
2024/02/13 12:14:38;;;;;;;3.87;1.47;;;10.30;83.10;;;;;;5150953;27;20406;-73
2024/02/13 12:17:10;;;;;;;3.27;1.60;;;10.30;83.30;;;;;;5132973;27;20432;-72
2024/02/13 12:19:37;;;;;;;2.70;1.13;;;10.40;83.00;;;;;;5147518;27;20488;-75
2024/02/13 12:22:08;;;;;;;3.17;1.33;;;10.40;77.60;;;;;;5133706;27;20559;-73
2024/02/13 12:24:36;;;;;;;2.03;1.10;;;10.50;77.30;;;;;;5145718;27;20458;-73
2024/02/13 12:27:04;;;;;;;1.87;0.90;;;10.70;76.00;;;;;;5154262;27;20512;-74
2024/02/13 12:29:30;;;;;;;1.83;0.90;;;10.80;74.00;;;;;;5109882;27;20422;-72
2024/02/13 12:31:56;;;;;;;2.90;1.30;;;10.90;69.70;;;;;;5137406;27;20438;-72
2024/02/13 12:34:25;;;;;;;3.23;1.03;;;11.00;69.40;;;;;;5136713;27;20828;-72
2024/02/13 12:36:56;;;;;;;1.87;1.00;;;11.10;65.70;;;;;;5124299;27;20476;-72
2024/02/13 12:39:25;;;;;;;4.07;2.13;;;11.20;67.30;;;;;;5136577;27;20462;-71
2024/02/13 12:41:51;;;;;;;3.07;2.37;;;11.30;65.70;;;;;;5137108;27;20460;-74
2024/02/13 12:44:23;;;;;;;3.53;1.27;;;11.20;64.80;;;;;;5143253;27;20447;-75
2024/02/13 12:46:51;;;;;;;2.80;1.30;;;11.20;66.50;;;;;;5145680;27;20484;-74
2024/02/13 12:49:19;;;;;;;2.07;1.07;;;11.20;62.90;;;;;;5143517;27;20437;-73
2024/02/13 12:51:45;;;;;;;1.50;1.00;;;11.10;64.10;;;;;;5145625;27;20768;-72
2024/02/13 12:54:12;;;;;;;3.57;1.00;;;11.00;63.20;;;;;;5128191;27;20180;-73
2024/02/13 12:56:40;;;;;;;3.13;0.97;;;10.80;62.00;;;;;;5108596;27;20982;-73